sensor_id;sensor_type;location;lat;lon;timestamp;P1;durP1;ratioP1;P2;durP2;ratioP2
7324;SDS011;3703;48.016;7.802;2023-09-08T00:00:01;9.53;;;7.70;;
7324;SDS011;3703;48.016;7.802;2023-09-08T00:02:28;9.50;;;7.97;;
7324;SDS011;3703;48.016;7.802;2023-09-08T00:04:55;12.80;;;8.27;;
7324;SDS011;3703;48.016;7.802;2023-09-08T00:07:22;9.20;;;7.60;;
7324;SDS011;3703;48.016;7.802;2023-09-08T00:09:50;11.77;;;8.40;;
7324;SDS011;3703;48.016;7.802;2023-09-08T00:12:17;10.90;;;8.43;;
7324;SDS011;3703;48.016;7.802;2023-09-08T00:14:45;15.97;;;7.93;;
7324;SDS011;3703;48.016;7.802;2023-09-08T00:17:13;8.70;;;7.77;;
7324;SDS011;3703;48.016;7.802;2023-09-08T00:19:40;10.20;;;7.93;;
7324;SDS011;3703;48.016;7.802;2023-09-08T00:22:08;8.57;;;7.67;;
7324;SDS011;3703;48.016;7.802;2023-09-08T00:24:35;9.87;;;7.87;;
7324;SDS011;3703;48.016;7.802;2023-09-08T00:27:03;8.67;;;7.77;;
7324;SDS011;3703;48.016;7.802;2023-09-08T00:29:31;9.53;;;8.07;;
7324;SDS011;3703;48.016;7.802;2023-09-08T00:31:58;8.33;;;7.40;;
7324;SDS011;3703;48.016;7.802;2023-09-08T00:34:26;8.73;;;7.83;;
7324;SDS011;3703;48.016;7.802;2023-09-08T00:36:53;9.33;;;8.33;;
7324;SDS011;3703;48.016;7.802;2023-09-08T00:39:20;10.80;;;8.83;;
7324;SDS011;3703;48.016;7.802;2023-09-08T00:41:48;10.97;;;8.20;;
7324;SDS011;3703;48.016;7.802;2023-09-08T00:44:15;8.47;;;7.63;;
7324;SDS011;3703;48.016;7.802;2023-09-08T00:46:42;9.97;;;7.60;;
7324;SDS011;3703;48.016;7.802;2023-09-08T00:49:09;8.67;;;7.53;;
7324;SDS011;3703;48.016;7.802;2023-09-08T00:51:38;9.77;;;8.03;;
7324;SDS011;3703;48.016;7.802;2023-09-08T00:54:06;9.57;;;7.87;;
7324;SDS011;3703;48.016;7.802;2023-09-08T00:56:33;8.63;;;7.47;;
7324;SDS011;3703;48.016;7.802;2023-09-08T00:59:01;10.00;;;8.30;;
7324;SDS011;3703;48.016;7.802;2023-09-08T01:01:29;8.50;;;7.60;;
7324;SDS011;3703;48.016;7.802;2023-09-08T01:03:56;9.70;;;7.43;;
7324;SDS011;3703;48.016;7.802;2023-09-08T01:06:23;9.77;;;7.73;;
7324;SDS011;3703;48.016;7.802;2023-09-08T01:08:52;8.30;;;7.17;;
7324;SDS011;3703;48.016;7.802;2023-09-08T01:11:20;8.67;;;7.73;;
7324;SDS011;3703;48.016;7.802;2023-09-08T01:13:48;9.20;;;8.13;;
7324;SDS011;3703;48.016;7.802;2023-09-08T01:16:16;9.37;;;7.80;;
7324;SDS011;3703;48.016;7.802;2023-09-08T01:18:43;9.63;;;8.63;;
7324;SDS011;3703;48.016;7.802;2023-09-08T01:21:28;9.93;;;7.80;;
7324;SDS011;3703;48.016;7.802;2023-09-08T01:24:36;9.00;;;7.90;;
7324;SDS011;3703;48.016;7.802;2023-09-08T01:27:31;8.40;;;7.50;;
7324;SDS011;3703;48.016;7.802;2023-09-08T01:30:00;9.23;;;7.67;;
7324;SDS011;3703;48.016;7.802;2023-09-08T01:32:30;8.00;;;6.93;;
7324;SDS011;3703;48.016;7.802;2023-09-08T01:34:59;8.90;;;7.57;;
7324;SDS011;3703;48.016;7.802;2023-09-08T01:37:26;11.93;;;7.50;;
7324;SDS011;3703;48.016;7.802;2023-09-08T01:39:53;8.20;;;7.13;;
7324;SDS011;3703;48.016;7.802;2023-09-08T01:42:22;9.00;;;7.73;;
7324;SDS011;3703;48.016;7.802;2023-09-08T01:44:49;10.47;;;7.60;;
7324;SDS011;3703;48.016;7.802;2023-09-08T01:47:16;8.20;;;6.77;;
7324;SDS011;3703;48.016;7.802;2023-09-08T01:49:43;7.83;;;7.03;;
7324;SDS011;3703;48.016;7.802;2023-09-08T01:52:29;9.30;;;7.10;;
7324;SDS011;3703;48.016;7.802;2023-09-08T01:54:56;8.83;;;7.60;;
7324;SDS011;3703;48.016;7.802;2023-09-08T01:57:25;8.47;;;7.37;;
7324;SDS011;3703;48.016;7.802;2023-09-08T01:59:52;7.97;;;6.90;;
7324;SDS011;3703;48.016;7.802;2023-09-08T02:02:19;8.40;;;7.27;;
7324;SDS011;3703;48.016;7.802;2023-09-08T02:04:48;8.27;;;7.20;;
7324;SDS011;3703;48.016;7.802;2023-09-08T02:07:15;9.27;;;7.17;;
7324;SDS011;3703;48.016;7.802;2023-09-08T02:09:42;8.47;;;7.07;;
7324;SDS011;3703;48.016;7.802;2023-09-08T02:12:10;9.47;;;7.27;;
7324;SDS011;3703;48.016;7.802;2023-09-08T02:14:38;9.80;;;7.47;;
7324;SDS011;3703;48.016;7.802;2023-09-08T02:17:05;7.23;;;6.50;;
7324;SDS011;3703;48.016;7.802;2023-09-08T02:19:32;9.53;;;7.30;;
7324;SDS011;3703;48.016;7.802;2023-09-08T02:21:59;7.90;;;7.03;;
7324;SDS011;3703;48.016;7.802;2023-09-08T02:24:26;8.40;;;7.50;;
7324;SDS011;3703;48.016;7.802;2023-09-08T02:26:53;8.50;;;7.20;;
7324;SDS011;3703;48.016;7.802;2023-09-08T02:29:21;9.27;;;7.20;;
7324;SDS011;3703;48.016;7.802;2023-09-08T02:31:50;10.17;;;7.67;;
7324;SDS011;3703;48.016;7.802;2023-09-08T02:34:17;9.70;;;7.33;;
7324;SDS011;3703;48.016;7.802;2023-09-08T02:36:44;9.10;;;7.43;;
7324;SDS011;3703;48.016;7.802;2023-09-08T02:39:12;8.93;;;7.23;;
7324;SDS011;3703;48.016;7.802;2023-09-08T02:41:55;8.33;;;7.20;;
7324;SDS011;3703;48.016;7.802;2023-09-08T02:44:22;10.27;;;7.10;;
7324;SDS011;3703;48.016;7.802;2023-09-08T02:46:51;9.73;;;7.50;;
7324;SDS011;3703;48.016;7.802;2023-09-08T02:49:18;7.80;;;7.00;;
7324;SDS011;3703;48.016;7.802;2023-09-08T02:51:46;7.80;;;7.03;;
7324;SDS011;3703;48.016;7.802;2023-09-08T02:54:13;8.27;;;7.07;;
7324;SDS011;3703;48.016;7.802;2023-09-08T02:56:40;8.43;;;7.27;;
7324;SDS011;3703;48.016;7.802;2023-09-08T02:59:07;8.90;;;6.90;;
7324;SDS011;3703;48.016;7.802;2023-09-08T03:01:34;8.20;;;7.13;;
7324;SDS011;3703;48.016;7.802;2023-09-08T03:04:03;8.90;;;7.37;;
7324;SDS011;3703;48.016;7.802;2023-09-08T03:06:30;9.33;;;7.73;;
7324;SDS011;3703;48.016;7.802;2023-09-08T03:08:58;9.03;;;7.63;;
7324;SDS011;3703;48.016;7.802;2023-09-08T03:11:25;8.33;;;7.47;;
7324;SDS011;3703;48.016;7.802;2023-09-08T03:13:53;8.57;;;7.60;;
7324;SDS011;3703;48.016;7.802;2023-09-08T03:16:20;8.60;;;7.80;;
7324;SDS011;3703;48.016;7.802;2023-09-08T03:18:48;8.60;;;7.50;;
7324;SDS011;3703;48.016;7.802;2023-09-08T03:21:17;8.43;;;7.53;;
7324;SDS011;3703;48.016;7.802;2023-09-08T03:23:44;9.37;;;7.73;;
7324;SDS011;3703;48.016;7.802;2023-09-08T03:26:12;10.30;;;7.43;;
7324;SDS011;3703;48.016;7.802;2023-09-08T03:28:39;8.73;;;7.83;;
7324;SDS011;3703;48.016;7.802;2023-09-08T03:31:09;9.53;;;7.57;;
7324;SDS011;3703;48.016;7.802;2023-09-08T03:33:36;9.47;;;7.77;;
7324;SDS011;3703;48.016;7.802;2023-09-08T03:36:04;8.87;;;7.97;;
7324;SDS011;3703;48.016;7.802;2023-09-08T03:38:32;9.33;;;8.10;;
7324;SDS011;3703;48.016;7.802;2023-09-08T03:41:02;8.90;;;8.00;;
7324;SDS011;3703;48.016;7.802;2023-09-08T03:43:29;9.17;;;7.97;;
7324;SDS011;3703;48.016;7.802;2023-09-08T03:45:56;9.97;;;7.87;;
7324;SDS011;3703;48.016;7.802;2023-09-08T03:48:23;8.43;;;7.53;;
7324;SDS011;3703;48.016;7.802;2023-09-08T03:50:51;10.53;;;8.23;;
7324;SDS011;3703;48.016;7.802;2023-09-08T03:53:18;10.90;;;9.00;;
7324;SDS011;3703;48.016;7.802;2023-09-08T03:55:47;9.50;;;8.00;;
7324;SDS011;3703;48.016;7.802;2023-09-08T03:58:14;9.50;;;7.73;;
7324;SDS011;3703;48.016;7.802;2023-09-08T04:00:42;9.70;;;8.43;;
7324;SDS011;3703;48.016;7.802;2023-09-08T04:03:09;9.27;;;8.27;;
7324;SDS011;3703;48.016;7.802;2023-09-08T04:05:36;10.43;;;8.03;;
7324;SDS011;3703;48.016;7.802;2023-09-08T04:08:03;9.17;;;8.17;;
7324;SDS011;3703;48.016;7.802;2023-09-08T04:10:36;10.53;;;9.27;;
7324;SDS011;3703;48.016;7.802;2023-09-08T04:13:05;10.63;;;8.50;;
7324;SDS011;3703;48.016;7.802;2023-09-08T04:15:32;9.17;;;8.27;;
7324;SDS011;3703;48.016;7.802;2023-09-08T04:17:59;11.20;;;8.80;;
7324;SDS011;3703;48.016;7.802;2023-09-08T04:20:27;10.23;;;8.57;;
7324;SDS011;3703;48.016;7.802;2023-09-08T04:22:54;9.27;;;8.33;;
7324;SDS011;3703;48.016;7.802;2023-09-08T04:25:21;10.10;;;7.93;;
7324;SDS011;3703;48.016;7.802;2023-09-08T04:27:50;12.23;;;9.63;;
7324;SDS011;3703;48.016;7.802;2023-09-08T04:30:18;12.47;;;9.27;;
7324;SDS011;3703;48.016;7.802;2023-09-08T04:32:46;10.37;;;8.90;;
7324;SDS011;3703;48.016;7.802;2023-09-08T04:35:13;11.93;;;8.83;;
7324;SDS011;3703;48.016;7.802;2023-09-08T04:37:40;13.60;;;8.90;;
7324;SDS011;3703;48.016;7.802;2023-09-08T04:40:08;12.50;;;9.10;;
7324;SDS011;3703;48.016;7.802;2023-09-08T04:42:36;10.50;;;9.40;;
7324;SDS011;3703;48.016;7.802;2023-09-08T04:45:04;12.20;;;9.30;;
7324;SDS011;3703;48.016;7.802;2023-09-08T04:47:33;10.90;;;9.63;;
7324;SDS011;3703;48.016;7.802;2023-09-08T04:50:00;11.23;;;9.70;;
7324;SDS011;3703;48.016;7.802;2023-09-08T04:52:28;11.30;;;10.03;;
7324;SDS011;3703;48.016;7.802;2023-09-08T04:54:56;11.13;;;9.63;;
7324;SDS011;3703;48.016;7.802;2023-09-08T04:57:23;12.87;;;9.70;;
7324;SDS011;3703;48.016;7.802;2023-09-08T04:59:50;12.80;;;9.60;;
7324;SDS011;3703;48.016;7.802;2023-09-08T05:02:17;10.33;;;9.27;;
7324;SDS011;3703;48.016;7.802;2023-09-08T05:04:46;11.30;;;10.07;;
7324;SDS011;3703;48.016;7.802;2023-09-08T05:07:13;10.70;;;9.60;;
7324;SDS011;3703;48.016;7.802;2023-09-08T05:09:40;11.43;;;9.67;;
7324;SDS011;3703;48.016;7.802;2023-09-08T05:12:08;14.73;;;9.30;;
7324;SDS011;3703;48.016;7.802;2023-09-08T05:14:35;28.70;;;11.53;;
7324;SDS011;3703;48.016;7.802;2023-09-08T05:17:02;24.00;;;10.03;;
7324;SDS011;3703;48.016;7.802;2023-09-08T05:19:30;13.73;;;9.00;;
7324;SDS011;3703;48.016;7.802;2023-09-08T05:21:58;16.03;;;9.70;;
7324;SDS011;3703;48.016;7.802;2023-09-08T05:24:29;12.00;;;9.30;;
7324;SDS011;3703;48.016;7.802;2023-09-08T05:26:56;11.20;;;9.03;;
7324;SDS011;3703;48.016;7.802;2023-09-08T05:29:24;13.17;;;9.87;;
7324;SDS011;3703;48.016;7.802;2023-09-08T05:31:51;27.70;;;9.83;;
7324;SDS011;3703;48.016;7.802;2023-09-08T05:34:29;25.47;;;11.13;;
7324;SDS011;3703;48.016;7.802;2023-09-08T05:36:56;15.30;;;9.47;;
7324;SDS011;3703;48.016;7.802;2023-09-08T05:39:24;10.37;;;8.90;;
7324;SDS011;3703;48.016;7.802;2023-09-08T05:41:52;14.17;;;9.30;;
7324;SDS011;3703;48.016;7.802;2023-09-08T05:44:19;12.83;;;9.90;;
7324;SDS011;3703;48.016;7.802;2023-09-08T05:46:50;24.63;;;11.27;;
7324;SDS011;3703;48.016;7.802;2023-09-08T05:49:19;12.87;;;8.93;;
7324;SDS011;3703;48.016;7.802;2023-09-08T05:51:46;13.17;;;9.17;;
7324;SDS011;3703;48.016;7.802;2023-09-08T05:54:15;9.97;;;8.73;;
7324;SDS011;3703;48.016;7.802;2023-09-08T05:56:43;11.87;;;9.77;;
7324;SDS011;3703;48.016;7.802;2023-09-08T05:59:10;12.53;;;8.77;;
7324;SDS011;3703;48.016;7.802;2023-09-08T06:01:38;14.47;;;9.83;;
7324;SDS011;3703;48.016;7.802;2023-09-08T06:04:15;12.70;;;9.70;;
7324;SDS011;3703;48.016;7.802;2023-09-08T06:07:04;13.37;;;9.67;;
7324;SDS011;3703;48.016;7.802;2023-09-08T06:09:33;11.50;;;9.20;;
7324;SDS011;3703;48.016;7.802;2023-09-08T06:12:00;10.10;;;8.60;;
7324;SDS011;3703;48.016;7.802;2023-09-08T06:14:27;11.63;;;9.87;;
7324;SDS011;3703;48.016;7.802;2023-09-08T06:16:54;20.83;;;9.50;;
7324;SDS011;3703;48.016;7.802;2023-09-08T06:19:22;11.63;;;9.27;;
7324;SDS011;3703;48.016;7.802;2023-09-08T06:21:50;24.20;;;9.70;;
7324;SDS011;3703;48.016;7.802;2023-09-08T06:24:18;11.87;;;9.87;;
7324;SDS011;3703;48.016;7.802;2023-09-08T06:26:47;13.27;;;9.60;;
7324;SDS011;3703;48.016;7.802;2023-09-08T06:29:28;11.43;;;8.33;;
7324;SDS011;3703;48.016;7.802;2023-09-08T06:31:57;12.00;;;8.57;;
7324;SDS011;3703;48.016;7.802;2023-09-08T06:34:25;13.30;;;9.50;;
7324;SDS011;3703;48.016;7.802;2023-09-08T06:36:53;13.57;;;9.93;;
7324;SDS011;3703;48.016;7.802;2023-09-08T06:39:20;12.37;;;10.10;;
7324;SDS011;3703;48.016;7.802;2023-09-08T06:41:55;14.53;;;9.67;;
7324;SDS011;3703;48.016;7.802;2023-09-08T06:44:23;19.27;;;10.00;;
7324;SDS011;3703;48.016;7.802;2023-09-08T06:46:57;10.37;;;9.17;;
7324;SDS011;3703;48.016;7.802;2023-09-08T06:49:24;11.17;;;9.10;;
7324;SDS011;3703;48.016;7.802;2023-09-08T06:51:52;14.37;;;10.37;;
7324;SDS011;3703;48.016;7.802;2023-09-08T06:54:20;10.73;;;9.43;;
7324;SDS011;3703;48.016;7.802;2023-09-08T06:56:47;10.60;;;8.63;;
7324;SDS011;3703;48.016;7.802;2023-09-08T06:59:18;13.43;;;10.67;;
7324;SDS011;3703;48.016;7.802;2023-09-08T07:01:46;11.93;;;9.80;;
7324;SDS011;3703;48.016;7.802;2023-09-08T07:04:13;12.53;;;7.93;;
7324;SDS011;3703;48.016;7.802;2023-09-08T07:06:40;10.87;;;9.30;;
7324;SDS011;3703;48.016;7.802;2023-09-08T07:09:08;11.10;;;9.67;;
7324;SDS011;3703;48.016;7.802;2023-09-08T07:11:36;12.80;;;10.43;;
7324;SDS011;3703;48.016;7.802;2023-09-08T07:14:04;13.87;;;9.97;;
7324;SDS011;3703;48.016;7.802;2023-09-08T07:16:32;13.90;;;8.90;;
7324;SDS011;3703;48.016;7.802;2023-09-08T07:19:00;12.17;;;9.13;;
7324;SDS011;3703;48.016;7.802;2023-09-08T07:21:28;10.67;;;8.80;;
7324;SDS011;3703;48.016;7.802;2023-09-08T07:23:57;15.77;;;9.43;;
7324;SDS011;3703;48.016;7.802;2023-09-08T07:26:24;12.30;;;9.50;;
7324;SDS011;3703;48.016;7.802;2023-09-08T07:28:51;11.80;;;9.37;;
7324;SDS011;3703;48.016;7.802;2023-09-08T07:31:19;14.57;;;10.00;;
7324;SDS011;3703;48.016;7.802;2023-09-08T07:33:48;11.73;;;9.07;;
7324;SDS011;3703;48.016;7.802;2023-09-08T07:36:15;10.53;;;8.10;;
7324;SDS011;3703;48.016;7.802;2023-09-08T07:38:43;12.60;;;8.83;;
7324;SDS011;3703;48.016;7.802;2023-09-08T07:41:10;9.40;;;8.50;;
7324;SDS011;3703;48.016;7.802;2023-09-08T07:43:51;10.47;;;9.00;;
7324;SDS011;3703;48.016;7.802;2023-09-08T07:46:18;10.03;;;7.93;;
7324;SDS011;3703;48.016;7.802;2023-09-08T07:48:48;10.73;;;8.20;;
7324;SDS011;3703;48.016;7.802;2023-09-08T07:51:16;9.90;;;8.40;;
7324;SDS011;3703;48.016;7.802;2023-09-08T07:53:44;11.83;;;8.80;;
7324;SDS011;3703;48.016;7.802;2023-09-08T07:56:12;11.33;;;8.27;;
7324;SDS011;3703;48.016;7.802;2023-09-08T07:58:39;13.10;;;8.40;;
7324;SDS011;3703;48.016;7.802;2023-09-08T08:01:07;12.50;;;9.00;;
7324;SDS011;3703;48.016;7.802;2023-09-08T08:03:34;13.50;;;8.67;;
7324;SDS011;3703;48.016;7.802;2023-09-08T08:06:02;12.77;;;8.87;;
7324;SDS011;3703;48.016;7.802;2023-09-08T08:08:31;12.47;;;8.97;;
7324;SDS011;3703;48.016;7.802;2023-09-08T08:11:08;10.50;;;9.10;;
7324;SDS011;3703;48.016;7.802;2023-09-08T08:13:37;15.23;;;9.50;;
7324;SDS011;3703;48.016;7.802;2023-09-08T08:16:04;9.83;;;8.53;;
7324;SDS011;3703;48.016;7.802;2023-09-08T08:18:31;11.60;;;8.07;;
7324;SDS011;3703;48.016;7.802;2023-09-08T08:20:59;8.77;;;7.80;;
7324;SDS011;3703;48.016;7.802;2023-09-08T08:23:30;10.77;;;8.10;;
7324;SDS011;3703;48.016;7.802;2023-09-08T08:25:59;9.30;;;7.50;;
7324;SDS011;3703;48.016;7.802;2023-09-08T08:28:26;10.40;;;7.50;;
7324;SDS011;3703;48.016;7.802;2023-09-08T08:30:54;10.83;;;8.20;;
7324;SDS011;3703;48.016;7.802;2023-09-08T08:33:22;8.77;;;7.50;;
7324;SDS011;3703;48.016;7.802;2023-09-08T08:35:51;11.53;;;8.37;;
7324;SDS011;3703;48.016;7.802;2023-09-08T08:38:19;14.50;;;8.07;;
7324;SDS011;3703;48.016;7.802;2023-09-08T08:40:50;13.20;;;8.37;;
7324;SDS011;3703;48.016;7.802;2023-09-08T08:43:17;15.07;;;9.10;;
7324;SDS011;3703;48.016;7.802;2023-09-08T08:45:45;8.20;;;7.40;;
7324;SDS011;3703;48.016;7.802;2023-09-08T08:48:13;10.43;;;8.57;;
7324;SDS011;3703;48.016;7.802;2023-09-08T08:50:43;10.60;;;8.30;;
7324;SDS011;3703;48.016;7.802;2023-09-08T08:53:11;9.70;;;8.20;;
7324;SDS011;3703;48.016;7.802;2023-09-08T08:55:39;9.87;;;7.93;;
7324;SDS011;3703;48.016;7.802;2023-09-08T08:58:17;9.00;;;7.77;;
7324;SDS011;3703;48.016;7.802;2023-09-08T09:00:50;9.70;;;8.10;;
7324;SDS011;3703;48.016;7.802;2023-09-08T09:03:18;9.10;;;8.07;;
7324;SDS011;3703;48.016;7.802;2023-09-08T09:05:47;11.43;;;7.57;;
7324;SDS011;3703;48.016;7.802;2023-09-08T09:08:14;9.23;;;7.73;;
7324;SDS011;3703;48.016;7.802;2023-09-08T09:10:43;8.93;;;7.93;;
7324;SDS011;3703;48.016;7.802;2023-09-08T09:13:10;9.40;;;8.07;;
7324;SDS011;3703;48.016;7.802;2023-09-08T09:15:40;9.67;;;7.57;;
7324;SDS011;3703;48.016;7.802;2023-09-08T09:18:09;10.80;;;8.93;;
7324;SDS011;3703;48.016;7.802;2023-09-08T09:20:36;11.23;;;8.07;;
7324;SDS011;3703;48.016;7.802;2023-09-08T09:23:05;9.13;;;7.43;;
7324;SDS011;3703;48.016;7.802;2023-09-08T09:25:32;9.17;;;8.03;;
7324;SDS011;3703;48.016;7.802;2023-09-08T09:28:02;9.37;;;7.33;;
7324;SDS011;3703;48.016;7.802;2023-09-08T09:30:46;10.33;;;8.20;;
7324;SDS011;3703;48.016;7.802;2023-09-08T09:33:16;11.37;;;8.23;;
7324;SDS011;3703;48.016;7.802;2023-09-08T09:35:44;11.80;;;8.23;;
7324;SDS011;3703;48.016;7.802;2023-09-08T09:38:13;9.30;;;7.47;;
7324;SDS011;3703;48.016;7.802;2023-09-08T09:40:42;8.77;;;7.53;;
7324;SDS011;3703;48.016;7.802;2023-09-08T09:43:09;10.27;;;7.77;;
7324;SDS011;3703;48.016;7.802;2023-09-08T09:45:37;8.50;;;7.63;;
7324;SDS011;3703;48.016;7.802;2023-09-08T09:48:08;8.70;;;7.80;;
7324;SDS011;3703;48.016;7.802;2023-09-08T09:50:37;10.33;;;7.67;;
7324;SDS011;3703;48.016;7.802;2023-09-08T09:53:10;9.07;;;7.80;;
7324;SDS011;3703;48.016;7.802;2023-09-08T09:55:39;9.50;;;7.60;;
7324;SDS011;3703;48.016;7.802;2023-09-08T09:58:08;9.07;;;7.73;;
7324;SDS011;3703;48.016;7.802;2023-09-08T10:00:36;8.60;;;7.23;;
7324;SDS011;3703;48.016;7.802;2023-09-08T10:03:05;8.43;;;7.53;;
7324;SDS011;3703;48.016;7.802;2023-09-08T10:05:36;9.40;;;7.03;;
7324;SDS011;3703;48.016;7.802;2023-09-08T10:08:04;7.80;;;7.03;;
7324;SDS011;3703;48.016;7.802;2023-09-08T10:10:32;8.87;;;8.03;;
7324;SDS011;3703;48.016;7.802;2023-09-08T10:13:02;9.97;;;7.03;;
7324;SDS011;3703;48.016;7.802;2023-09-08T10:15:33;9.73;;;7.10;;
7324;SDS011;3703;48.016;7.802;2023-09-08T10:18:03;9.67;;;7.63;;
7324;SDS011;3703;48.016;7.802;2023-09-08T10:20:33;7.87;;;7.00;;
7324;SDS011;3703;48.016;7.802;2023-09-08T10:23:04;11.70;;;6.90;;
7324;SDS011;3703;48.016;7.802;2023-09-08T10:25:37;8.13;;;7.07;;
7324;SDS011;3703;48.016;7.802;2023-09-08T10:28:11;8.77;;;7.10;;
7324;SDS011;3703;48.016;7.802;2023-09-08T10:30:39;8.90;;;7.30;;
7324;SDS011;3703;48.016;7.802;2023-09-08T10:33:06;8.90;;;7.10;;
7324;SDS011;3703;48.016;7.802;2023-09-08T10:35:36;10.83;;;7.13;;
7324;SDS011;3703;48.016;7.802;2023-09-08T10:38:22;8.97;;;7.57;;
7324;SDS011;3703;48.016;7.802;2023-09-08T10:40:54;8.20;;;7.17;;
7324;SDS011;3703;48.016;7.802;2023-09-08T10:44:02;10.53;;;7.03;;
7324;SDS011;3703;48.016;7.802;2023-09-08T10:46:33;11.37;;;7.33;;
7324;SDS011;3703;48.016;7.802;2023-09-08T10:49:01;9.23;;;6.53;;
7324;SDS011;3703;48.016;7.802;2023-09-08T10:51:33;7.57;;;6.77;;
7324;SDS011;3703;48.016;7.802;2023-09-08T10:54:00;8.53;;;6.30;;
7324;SDS011;3703;48.016;7.802;2023-09-08T10:56:31;7.43;;;6.70;;
7324;SDS011;3703;48.016;7.802;2023-09-08T10:59:15;7.43;;;6.23;;
7324;SDS011;3703;48.016;7.802;2023-09-08T11:01:42;7.57;;;6.50;;
7324;SDS011;3703;48.016;7.802;2023-09-08T11:04:10;7.07;;;6.33;;
7324;SDS011;3703;48.016;7.802;2023-09-08T11:06:45;7.97;;;5.87;;
7324;SDS011;3703;48.016;7.802;2023-09-08T11:09:12;8.37;;;6.10;;
7324;SDS011;3703;48.016;7.802;2023-09-08T11:11:39;6.60;;;6.00;;
7324;SDS011;3703;48.016;7.802;2023-09-08T11:14:06;7.77;;;6.23;;
7324;SDS011;3703;48.016;7.802;2023-09-08T11:16:33;7.60;;;6.90;;
7324;SDS011;3703;48.016;7.802;2023-09-08T11:19:01;7.13;;;6.30;;
7324;SDS011;3703;48.016;7.802;2023-09-08T11:21:29;7.27;;;6.00;;
7324;SDS011;3703;48.016;7.802;2023-09-08T11:24:01;7.80;;;6.53;;
7324;SDS011;3703;48.016;7.802;2023-09-08T11:26:29;6.23;;;5.63;;
7324;SDS011;3703;48.016;7.802;2023-09-08T11:28:59;6.50;;;5.57;;
7324;SDS011;3703;48.016;7.802;2023-09-08T11:31:26;8.60;;;5.23;;
7324;SDS011;3703;48.016;7.802;2023-09-08T11:33:54;6.80;;;5.60;;
7324;SDS011;3703;48.016;7.802;2023-09-08T11:36:22;6.30;;;5.27;;
7324;SDS011;3703;48.016;7.802;2023-09-08T11:38:49;7.57;;;5.50;;
7324;SDS011;3703;48.016;7.802;2023-09-08T11:41:38;6.97;;;5.77;;
7324;SDS011;3703;48.016;7.802;2023-09-08T11:44:25;7.13;;;5.70;;
7324;SDS011;3703;48.016;7.802;2023-09-08T11:47:12;8.60;;;5.27;;
7324;SDS011;3703;48.016;7.802;2023-09-08T11:49:58;6.60;;;5.10;;
7324;SDS011;3703;48.016;7.802;2023-09-08T11:52:25;5.70;;;5.13;;
7324;SDS011;3703;48.016;7.802;2023-09-08T11:54:52;5.40;;;4.90;;
7324;SDS011;3703;48.016;7.802;2023-09-08T11:57:21;6.37;;;5.43;;
7324;SDS011;3703;48.016;7.802;2023-09-08T11:59:49;6.00;;;5.17;;
7324;SDS011;3703;48.016;7.802;2023-09-08T12:02:17;6.43;;;5.47;;
7324;SDS011;3703;48.016;7.802;2023-09-08T12:04:44;9.53;;;5.30;;
7324;SDS011;3703;48.016;7.802;2023-09-08T12:07:12;5.47;;;4.97;;
7324;SDS011;3703;48.016;7.802;2023-09-08T12:09:41;8.10;;;5.17;;
7324;SDS011;3703;48.016;7.802;2023-09-08T12:12:10;7.30;;;5.23;;
7324;SDS011;3703;48.016;7.802;2023-09-08T12:14:41;9.27;;;5.50;;
7324;SDS011;3703;48.016;7.802;2023-09-08T12:17:08;5.30;;;4.80;;
7324;SDS011;3703;48.016;7.802;2023-09-08T12:19:38;5.93;;;4.80;;
7324;SDS011;3703;48.016;7.802;2023-09-08T12:22:06;5.10;;;4.60;;
7324;SDS011;3703;48.016;7.802;2023-09-08T12:24:48;6.23;;;4.57;;
7324;SDS011;3703;48.016;7.802;2023-09-08T12:27:23;7.93;;;4.90;;
7324;SDS011;3703;48.016;7.802;2023-09-08T12:29:55;5.23;;;4.70;;
7324;SDS011;3703;48.016;7.802;2023-09-08T12:32:24;4.77;;;4.30;;
7324;SDS011;3703;48.016;7.802;2023-09-08T12:34:52;5.53;;;4.53;;
7324;SDS011;3703;48.016;7.802;2023-09-08T12:37:21;6.80;;;4.90;;
7324;SDS011;3703;48.016;7.802;2023-09-08T12:39:48;6.23;;;4.53;;
7324;SDS011;3703;48.016;7.802;2023-09-08T12:42:17;5.73;;;4.73;;
7324;SDS011;3703;48.016;7.802;2023-09-08T12:44:45;5.90;;;4.60;;
7324;SDS011;3703;48.016;7.802;2023-09-08T12:47:15;5.03;;;4.53;;
7324;SDS011;3703;48.016;7.802;2023-09-08T12:49:42;6.37;;;4.87;;
7324;SDS011;3703;48.016;7.802;2023-09-08T12:52:09;6.43;;;4.80;;
7324;SDS011;3703;48.016;7.802;2023-09-08T12:54:36;5.13;;;4.60;;
7324;SDS011;3703;48.016;7.802;2023-09-08T12:57:03;5.90;;;4.32;;
7324;SDS011;3703;48.016;7.802;2023-09-08T12:59:31;5.40;;;4.57;;
7324;SDS011;3703;48.016;7.802;2023-09-08T13:01:58;8.63;;;4.35;;
7324;SDS011;3703;48.016;7.802;2023-09-08T13:04:26;4.80;;;4.30;;
7324;SDS011;3703;48.016;7.802;2023-09-08T13:06:54;7.03;;;4.30;;
7324;SDS011;3703;48.016;7.802;2023-09-08T13:09:23;5.85;;;4.32;;
7324;SDS011;3703;48.016;7.802;2023-09-08T13:11:51;5.72;;;4.50;;
7324;SDS011;3703;48.016;7.802;2023-09-08T13:14:18;5.25;;;4.75;;
7324;SDS011;3703;48.016;7.802;2023-09-08T13:16:45;6.07;;;4.50;;
7324;SDS011;3703;48.016;7.802;2023-09-08T13:19:12;4.90;;;4.40;;
7324;SDS011;3703;48.016;7.802;2023-09-08T13:21:40;6.10;;;4.90;;
7324;SDS011;3703;48.016;7.802;2023-09-08T13:24:08;5.22;;;4.13;;
7324;SDS011;3703;48.016;7.802;2023-09-08T13:26:36;7.20;;;4.97;;
7324;SDS011;3703;48.016;7.802;2023-09-08T13:29:03;6.70;;;4.50;;
7324;SDS011;3703;48.016;7.802;2023-09-08T13:31:30;6.03;;;4.50;;
7324;SDS011;3703;48.016;7.802;2023-09-08T13:33:57;6.25;;;4.50;;
7324;SDS011;3703;48.016;7.802;2023-09-08T13:36:24;4.38;;;3.97;;
7324;SDS011;3703;48.016;7.802;2023-09-08T13:38:53;5.65;;;4.25;;
7324;SDS011;3703;48.016;7.802;2023-09-08T13:41:20;4.97;;;4.07;;
7324;SDS011;3703;48.016;7.802;2023-09-08T13:43:48;5.75;;;3.88;;
7324;SDS011;3703;48.016;7.802;2023-09-08T13:46:15;7.80;;;4.03;;
7324;SDS011;3703;48.016;7.802;2023-09-08T13:48:43;4.15;;;3.75;;
7324;SDS011;3703;48.016;7.802;2023-09-08T13:51:11;6.35;;;4.35;;
7324;SDS011;3703;48.016;7.802;2023-09-08T13:53:38;8.27;;;4.25;;
7324;SDS011;3703;48.016;7.802;2023-09-08T13:56:06;5.63;;;4.32;;
7324;SDS011;3703;48.016;7.802;2023-09-08T13:58:33;6.65;;;3.70;;
7324;SDS011;3703;48.016;7.802;2023-09-08T14:01:00;5.72;;;4.38;;
7324;SDS011;3703;48.016;7.802;2023-09-08T14:03:28;7.03;;;3.92;;
7324;SDS011;3703;48.016;7.802;2023-09-08T14:05:56;5.88;;;3.80;;
7324;SDS011;3703;48.016;7.802;2023-09-08T14:08:23;6.35;;;4.10;;
7324;SDS011;3703;48.016;7.802;2023-09-08T14:10:50;5.25;;;3.88;;
7324;SDS011;3703;48.016;7.802;2023-09-08T14:13:20;4.50;;;4.10;;
7324;SDS011;3703;48.016;7.802;2023-09-08T14:15:47;5.20;;;3.72;;
7324;SDS011;3703;48.016;7.802;2023-09-08T14:18:15;9.80;;;4.30;;
7324;SDS011;3703;48.016;7.802;2023-09-08T14:20:43;6.50;;;3.88;;
7324;SDS011;3703;48.016;7.802;2023-09-08T14:23:10;9.88;;;4.47;;
7324;SDS011;3703;48.016;7.802;2023-09-08T14:25:37;7.37;;;4.03;;
7324;SDS011;3703;48.016;7.802;2023-09-08T14:28:04;4.40;;;3.83;;
7324;SDS011;3703;48.016;7.802;2023-09-08T14:30:33;7.93;;;4.10;;
7324;SDS011;3703;48.016;7.802;2023-09-08T14:33:01;7.60;;;4.10;;
7324;SDS011;3703;48.016;7.802;2023-09-08T14:35:28;4.73;;;4.00;;
7324;SDS011;3703;48.016;7.802;2023-09-08T14:37:55;5.07;;;4.37;;
7324;SDS011;3703;48.016;7.802;2023-09-08T14:40:22;7.07;;;4.43;;
7324;SDS011;3703;48.016;7.802;2023-09-08T14:42:50;5.73;;;3.70;;
7324;SDS011;3703;48.016;7.802;2023-09-08T14:45:17;7.37;;;3.70;;
7324;SDS011;3703;48.016;7.802;2023-09-08T14:47:46;7.57;;;3.87;;
7324;SDS011;3703;48.016;7.802;2023-09-08T14:50:13;6.10;;;3.50;;
7324;SDS011;3703;48.016;7.802;2023-09-08T14:52:42;7.20;;;3.90;;
7324;SDS011;3703;48.016;7.802;2023-09-08T14:55:09;5.13;;;3.93;;
7324;SDS011;3703;48.016;7.802;2023-09-08T14:57:37;5.60;;;3.93;;
7324;SDS011;3703;48.016;7.802;2023-09-08T15:00:08;5.40;;;4.33;;
7324;SDS011;3703;48.016;7.802;2023-09-08T15:02:36;6.60;;;3.80;;
7324;SDS011;3703;48.016;7.802;2023-09-08T15:05:05;7.13;;;3.63;;
7324;SDS011;3703;48.016;7.802;2023-09-08T15:07:33;8.10;;;3.97;;
7324;SDS011;3703;48.016;7.802;2023-09-08T15:10:00;6.13;;;3.57;;
7324;SDS011;3703;48.016;7.802;2023-09-08T15:12:29;6.23;;;3.53;;
7324;SDS011;3703;48.016;7.802;2023-09-08T15:14:56;7.03;;;3.57;;
7324;SDS011;3703;48.016;7.802;2023-09-08T15:17:24;9.73;;;3.90;;
7324;SDS011;3703;48.016;7.802;2023-09-08T15:19:51;7.00;;;3.93;;